createdAt,value
2019-02-26T00:09:53.553Z,21.6
2019-02-26T00:19:50.650Z,21.5
2019-02-26T00:29:51.208Z,21.6
2019-02-26T00:39:49.672Z,21.9
2019-02-26T00:49:49.007Z,21.7
2019-02-26T00:59:48.075Z,21.6
2019-02-26T01:09:47.784Z,21.5
2019-02-26T01:19:45.863Z,21.9
2019-02-26T01:29:47.223Z,21.9
2019-02-26T01:39:44.766Z,21.6
2019-02-26T01:49:44.163Z,21.6
2019-02-26T01:59:42.667Z,22
2019-02-26T02:09:41.868Z,21.7
2019-02-26T02:19:41.071Z,21.5
2019-02-26T02:29:42.312Z,21.9
2019-02-26T02:39:39.473Z,21.8
2019-02-26T02:49:39.822Z,21.6
2019-02-26T02:59:40.158Z,21.4
2019-02-26T03:09:38.445Z,21.4
2019-02-26T03:19:38.336Z,21.6
2019-02-26T03:29:35.478Z,21.8
2019-02-26T03:39:34.680Z,21.6
2019-02-26T03:49:33.885Z,21.4
2019-02-26T03:59:33.084Z,21.4
2019-02-26T04:09:32.284Z,22.8
2019-02-26T04:19:31.491Z,22
2019-02-26T04:31:22.486Z,21.7
2019-02-26T04:41:21.685Z,21.6
2019-02-26T04:51:20.886Z,21.4
2019-02-26T05:01:20.083Z,21.9
2019-02-26T05:11:31.321Z,21.8
2019-02-26T05:21:18.482Z,21.6
2019-02-26T05:31:17.736Z,21.5
2019-02-26T05:41:17.023Z,21.5
2019-02-26T05:51:16.317Z,22.2
2019-02-26T06:01:16.682Z,23
2019-02-26T06:11:16.964Z,23.6
2019-02-26T06:21:16.396Z,24.3
2019-02-26T06:31:14.565Z,24.5
2019-02-26T06:41:12.580Z,24
2019-02-26T06:51:11.783Z,23.6
2019-02-26T07:01:12.013Z,23.3
2019-02-26T07:11:10.191Z,23.2
2019-02-26T07:21:09.393Z,23.1
2019-02-26T07:31:10.250Z,23.1
2019-02-26T07:41:07.798Z,23.3
2019-02-26T07:51:07.002Z,23.3
2019-02-26T08:01:07.372Z,23.3
2019-02-26T08:11:06.564Z,23.4
2019-02-26T08:21:05.767Z,23.4
2019-02-26T08:31:05.421Z,23.4
2019-02-26T08:41:04.179Z,23.3
2019-02-26T08:51:05.516Z,23.4
2019-02-26T09:01:02.590Z,23.4
2019-02-26T09:11:03.450Z,23.5
2019-02-26T09:21:00.997Z,23.5
2019-02-26T09:31:01.758Z,23.6
2019-02-26T09:40:59.453Z,23.6
2019-02-26T09:50:58.608Z,23.6
2019-02-26T10:00:57.813Z,23.6
2019-02-26T10:10:59.625Z,23.6
2019-02-26T10:20:56.267Z,23.6
2019-02-26T10:30:56.872Z,23.5
2019-02-26T10:40:57.195Z,23.5
2019-02-26T10:50:53.825Z,23.3
2019-02-26T11:00:55.437Z,23.3
2019-02-26T11:10:52.515Z,23.2
2019-02-26T11:20:53.451Z,23.2
2019-02-26T11:30:52.059Z,23.1
2019-02-26T11:40:49.839Z,23.1
2019-02-26T11:50:49.092Z,23.1
2019-02-26T12:00:50.506Z,22.9
2019-02-26T12:10:47.448Z,22.9
2019-02-26T12:20:48.710Z,22.8
2019-02-26T12:30:46.662Z,22.7
2019-02-26T12:40:47.084Z,22.7
2019-02-26T12:50:44.259Z,22.6
2019-02-26T13:00:43.461Z,22.6
2019-02-26T13:10:46.528Z,22.5
2019-02-26T13:22:00.913Z,22.4
2019-02-26T13:33:00.821Z,22.4
2019-02-26T13:52:57.003Z,22.3
2019-02-26T14:02:56.159Z,22.3
2019-02-26T14:12:55.360Z,22.2
2019-02-26T14:22:54.564Z,22.1
2019-02-26T14:32:53.770Z,22.1
2019-02-26T14:42:52.972Z,22.1
2019-02-26T14:52:52.176Z,22.1
2019-02-26T15:02:51.428Z,22
2019-02-26T15:12:50.580Z,21.9
2019-02-26T15:22:49.785Z,21.9
2019-02-26T15:32:48.989Z,21.9
2019-02-26T15:42:52.258Z,21.9
2019-02-26T15:52:47.396Z,21.8
2019-02-26T16:02:46.603Z,21.8
2019-02-26T16:12:45.805Z,21.8
2019-02-26T16:22:45.058Z,21.8
2019-02-26T16:32:44.212Z,22.1
2019-02-26T16:42:44.506Z,21.9
2019-02-26T16:52:42.620Z,21.8
2019-02-26T17:02:41.824Z,21.8
2019-02-26T17:12:41.028Z,21.8
2019-02-26T17:22:41.010Z,21.7
2019-02-26T17:32:39.440Z,21.9
2019-02-26T17:42:38.646Z,22.1
2019-02-26T17:52:37.878Z,21.9
2019-02-26T18:02:37.105Z,21.8
2019-02-26T18:12:36.257Z,21.8
2019-02-26T18:22:35.467Z,22.1
2019-02-26T18:32:34.717Z,22.2
2019-02-26T18:42:33.918Z,22.1
2019-02-26T18:52:33.070Z,22.4
2019-02-26T19:02:33.455Z,22.2
2019-02-26T19:12:31.476Z,22
2019-02-26T19:22:30.715Z,21.9
2019-02-26T19:32:29.936Z,21.8
2019-02-26T19:42:29.091Z,21.8
2019-02-26T19:52:28.297Z,22.1
2019-02-26T20:02:31.299Z,22.1
2019-02-26T20:12:28.699Z,22.1
2019-02-26T20:22:30.045Z,22
2019-02-26T20:32:28.772Z,21.9
2019-02-26T20:42:26.727Z,21.9
2019-02-26T20:52:23.541Z,21.9
2019-02-26T21:02:22.722Z,22
2019-02-26T21:11:15.811Z,21.9
2019-02-26T21:21:15.015Z,21.9
2019-02-26T21:31:14.267Z,21.9
2019-02-26T21:41:13.423Z,22
2019-02-26T21:51:12.626Z,21.9
2019-02-26T22:01:12.213Z,21.9
2019-02-26T22:11:11.131Z,21.8
2019-02-26T22:21:10.368Z,21.8
2019-02-26T22:31:09.703Z,21.8
2019-02-26T22:41:08.938Z,21.9
2019-02-26T22:51:08.225Z,21.8
2019-02-26T23:01:07.508Z,21.8
2019-02-26T23:11:06.709Z,21.7
2019-02-26T23:21:05.912Z,21.7
2019-02-26T23:31:05.120Z,21.9
2019-02-26T23:41:04.316Z,21.9
2019-02-26T23:51:03.518Z,21.8
